Time;durP1;ratioP1;P1;durP2;ratioP2;P2;SDS_P1;SDS_P2;PMS_P1;PMS_P2;Temp;Humidity;BMP_temperature;BMP_pressure;BME280_temperature;BME280_humidity;BME280_pressure;Samples;Min_cycle;Max_cycle;Signal;HPM_P1;HPM_P2
2021/03/26 00:01:35;;;;;;;53.90;27.85;;;6.30;99.90;;;;;;5096170;28;20032;-67
2021/03/26 00:04:05;;;;;;;58.20;30.50;;;6.30;99.90;;;;;;5095861;28;20023;-67
2021/03/26 00:06:32;;;;;;;52.42;28.70;;;6.30;99.90;;;;;;5096307;28;20028;-67
2021/03/26 00:08:58;;;;;;;53.88;28.20;;;6.20;99.90;;;;;;5095748;28;20036;-67
2021/03/26 00:11:28;;;;;;;59.47;30.17;;;6.10;99.90;;;;;;5095955;28;20069;-67
2021/03/26 00:13:54;;;;;;;59.20;29.95;;;6.10;99.90;;;;;;5096210;28;20081;-67
2021/03/26 00:16:21;;;;;;;59.45;31.27;;;6.00;99.90;;;;;;5096065;28;20024;-67
2021/03/26 00:18:47;;;;;;;59.25;30.38;;;6.00;99.90;;;;;;5095794;28;20056;-67
2021/03/26 00:21:13;;;;;;;54.15;30.20;;;6.00;99.90;;;;;;5095988;28;20516;-67
2021/03/26 00:23:39;;;;;;;62.33;30.88;;;5.90;99.90;;;;;;5095941;28;20042;-67
2021/03/26 00:26:05;;;;;;;58.60;31.05;;;5.90;99.90;;;;;;5094121;28;20028;-67
2021/03/26 00:28:31;;;;;;;63.33;33.97;;;5.90;99.90;;;;;;5095760;28;20024;-67
2021/03/26 00:30:56;;;;;;;63.65;33.28;;;5.90;99.90;;;;;;5095807;28;20476;-67
2021/03/26 00:33:22;;;;;;;72.22;35.42;;;5.90;99.90;;;;;;5095693;28;20035;-67
2021/03/26 00:35:48;;;;;;;63.72;32.03;;;5.80;99.90;;;;;;5095701;28;20028;-67
2021/03/26 00:38:14;;;;;;;66.32;34.80;;;5.80;99.90;;;;;;5094213;28;20027;-67
2021/03/26 00:40:40;;;;;;;64.80;32.47;;;5.80;99.90;;;;;;5095384;28;20020;-67
2021/03/26 00:43:05;;;;;;;67.95;35.15;;;5.70;99.90;;;;;;5095303;28;20107;-67
2021/03/26 00:45:34;;;;;;;68.75;35.42;;;5.70;99.90;;;;;;5095261;28;20457;-67
2021/03/26 00:48:00;;;;;;;74.30;36.42;;;5.60;99.90;;;;;;5095481;28;20028;-67
2021/03/26 00:50:38;;;;;;;66.38;34.95;;;5.60;99.90;;;;;;5095140;28;20047;-67
2021/03/26 00:53:08;;;;;;;67.20;33.20;;;5.60;99.90;;;;;;5095410;28;20027;-67
2021/03/26 00:55:34;;;;;;;72.25;35.70;;;5.50;99.90;;;;;;5095369;28;20020;-67
2021/03/26 00:58:00;;;;;;;72.30;36.45;;;5.50;99.90;;;;;;5095275;28;20342;-67
2021/03/26 01:00:27;;;;;;;67.55;35.05;;;5.50;99.90;;;;;;5094950;28;20036;-67
2021/03/26 01:02:53;;;;;;;71.55;34.95;;;5.40;99.90;;;;;;5095203;28;20034;-67
2021/03/26 01:05:24;;;;;;;72.78;36.83;;;5.30;99.90;;;;;;5094888;28;20074;-67
2021/03/26 01:07:49;;;;;;;76.40;36.97;;;5.30;99.90;;;;;;5094692;28;20457;-67
2021/03/26 01:10:19;;;;;;;73.85;35.53;;;5.30;99.90;;;;;;5094965;28;20073;-67
2021/03/26 01:12:44;;;;;;;75.07;37.65;;;5.30;99.90;;;;;;5095054;28;20672;-67
2021/03/26 01:15:13;;;;;;;74.43;36.55;;;5.40;99.90;;;;;;5094945;28;20120;-67
2021/03/26 01:17:39;;;;;;;76.25;36.65;;;5.30;99.90;;;;;;5094915;28;20108;-67
2021/03/26 01:20:08;;;;;;;73.93;36.15;;;5.30;99.90;;;;;;5094897;28;20034;-67
2021/03/26 01:22:34;;;;;;;81.80;38.80;;;5.30;99.90;;;;;;5094890;28;20051;-67
2021/03/26 01:25:00;;;;;;;77.43;37.03;;;5.30;99.90;;;;;;5094808;28;20465;-67
2021/03/26 01:27:27;;;;;;;81.03;36.80;;;5.20;99.90;;;;;;5094792;28;20461;-67
2021/03/26 01:29:52;;;;;;;74.40;36.85;;;5.20;99.90;;;;;;5094660;28;20399;-67
2021/03/26 01:32:18;;;;;;;85.63;38.13;;;5.20;99.90;;;;;;5094738;28;20070;-67
2021/03/26 01:34:43;;;;;;;79.72;37.63;;;5.30;99.90;;;;;;5094360;28;20078;-67
2021/03/26 01:37:09;;;;;;;76.80;36.95;;;5.30;99.90;;;;;;5094644;28;20410;-67
2021/03/26 01:39:35;;;;;;;76.85;37.50;;;5.20;99.90;;;;;;5094194;28;20024;-67
2021/03/26 01:42:00;;;;;;;73.25;35.63;;;5.10;99.90;;;;;;5094239;28;20020;-67
2021/03/26 01:44:28;;;;;;;87.72;39.42;;;5.10;99.90;;;;;;5094499;28;20410;-67
2021/03/26 01:46:54;;;;;;;95.20;41.95;;;5.20;99.90;;;;;;5094220;28;20036;-67
2021/03/26 01:49:20;;;;;;;94.00;43.42;;;5.10;99.90;;;;;;5094118;28;20030;-67
2021/03/26 01:51:48;;;;;;;95.53;42.28;;;5.20;99.90;;;;;;5094173;28;20043;-67
2021/03/26 01:54:17;;;;;;;98.25;42.20;;;5.20;99.90;;;;;;5094107;28;20020;-67
2021/03/26 01:56:43;;;;;;;98.00;43.33;;;5.20;99.90;;;;;;5094358;28;20077;-67
2021/03/26 01:59:08;;;;;;;92.28;41.00;;;5.20;99.90;;;;;;5093125;28;20034;-67
2021/03/26 02:01:40;;;;;;;82.07;38.05;;;5.20;99.90;;;;;;5093967;28;20024;-67
2021/03/26 02:04:08;;;;;;;74.15;36.42;;;5.10;99.90;;;;;;5093999;28;20020;-67
2021/03/26 02:06:38;;;;;;;80.03;37.85;;;5.10;99.90;;;;;;5094209;28;20030;-67
2021/03/26 02:09:10;;;;;;;95.38;40.85;;;5.00;99.90;;;;;;5093368;28;20051;-67
2021/03/26 02:11:46;;;;;;;86.38;39.10;;;4.90;99.90;;;;;;5094158;28;20024;-67
2021/03/26 02:14:17;;;;;;;92.13;39.67;;;5.00;99.90;;;;;;5094138;28;20453;-67
2021/03/26 02:16:43;;;;;;;83.43;39.70;;;5.00;99.90;;;;;;5094116;28;20078;-67
2021/03/26 02:19:17;;;;;;;91.07;39.95;;;4.90;99.90;;;;;;5093093;28;20443;-67
2021/03/26 02:21:43;;;;;;;94.22;41.08;;;4.80;99.90;;;;;;5092573;28;20036;-67
2021/03/26 02:24:10;;;;;;;90.38;42.08;;;4.80;99.90;;;;;;5094038;28;20032;-67
2021/03/26 02:26:40;;;;;;;94.60;40.45;;;4.70;99.90;;;;;;5094019;28;20043;-67
2021/03/26 02:29:22;;;;;;;89.18;41.83;;;4.70;99.90;;;;;;5093378;28;20020;-67
2021/03/26 02:31:51;;;;;;;104.13;45.83;;;4.70;99.90;;;;;;5093427;28;20094;-67
2021/03/26 02:34:17;;;;;;;93.57;41.60;;;4.70;99.90;;;;;;5093985;28;20449;-67
2021/03/26 02:36:47;;;;;;;98.75;43.00;;;4.70;99.90;;;;;;5093917;28;20024;-67
2021/03/26 02:39:22;;;;;;;122.07;46.85;;;4.70;99.90;;;;;;5093916;28;20016;-67
2021/03/26 02:41:52;;;;;;;88.65;41.42;;;4.70;99.90;;;;;;5093649;28;20488;-67
2021/03/26 02:44:31;;;;;;;123.85;45.63;;;4.70;99.90;;;;;;5093630;28;20031;-67
2021/03/26 02:47:37;;;;;;;97.40;41.88;;;4.70;99.90;;;;;;5093295;28;20066;-67
2021/03/26 02:50:10;;;;;;;77.97;37.53;;;4.70;99.90;;;;;;5093103;28;20050;-67
2021/03/26 02:52:52;;;;;;;87.78;40.20;;;4.60;99.90;;;;;;5097108;28;20027;-67
2021/03/26 02:55:42;;;;;;;111.63;44.15;;;4.50;99.90;;;;;;5097694;28;20073;-67
2021/03/26 02:58:20;;;;;;;109.75;45.05;;;4.60;99.90;;;;;;5097309;28;20027;-67
2021/03/26 03:03:26;;;;;;;95.03;40.78;;;4.70;99.90;;;;;;5112289;27;20292;-68
2021/03/26 03:06:01;;;;;;;97.50;40.80;;;4.60;99.90;;;;;;5111665;28;20035;-66
2021/03/26 03:08:30;;;;;;;96.15;39.17;;;4.60;99.90;;;;;;5111875;28;20046;-68
2021/03/26 03:11:08;;;;;;;88.03;40.72;;;4.40;99.90;;;;;;5111803;28;20020;-68
2021/03/26 03:13:41;;;;;;;89.15;40.05;;;4.30;99.90;;;;;;5111512;28;20030;-68
2021/03/26 03:16:21;;;;;;;91.28;39.65;;;4.30;99.90;;;;;;5111473;28;20071;-68
2021/03/26 03:19:14;;;;;;;100.75;41.92;;;4.30;99.90;;;;;;5109996;28;20027;-68
2021/03/26 03:21:47;;;;;;;100.00;41.90;;;4.40;99.90;;;;;;5126820;28;20024;-68
2021/03/26 03:24:29;;;;;;;105.38;43.58;;;4.40;99.90;;;;;;5111336;28;20038;-68
2021/03/26 03:29:50;;;;;;;120.65;47.45;;;4.40;99.90;;;;;;5112263;27;20351;-67
2021/03/26 03:32:34;;;;;;;111.13;45.30;;;4.40;99.90;;;;;;5110875;28;20036;-67
2021/03/26 03:35:19;;;;;;;105.32;43.33;;;4.40;99.90;;;;;;5110110;28;20070;-67
2021/03/26 03:38:14;;;;;;;88.88;38.13;;;4.40;99.90;;;;;;5111827;28;20495;-67
2021/03/26 03:40:52;;;;;;;118.28;45.35;;;4.30;99.90;;;;;;5109845;28;20032;-67
2021/03/26 03:43:45;;;;;;;89.63;39.35;;;4.20;99.90;;;;;;5110301;28;20027;-67
2021/03/26 03:46:19;;;;;;;96.90;39.47;;;4.20;99.90;;;;;;5111647;28;20023;-67
2021/03/26 03:48:57;;;;;;;94.10;41.17;;;4.20;99.90;;;;;;5109889;28;20036;-67
2021/03/26 03:51:27;;;;;;;110.30;43.45;;;4.10;99.90;;;;;;5111030;28;20012;-67
2021/03/26 03:54:10;;;;;;;110.57;44.22;;;4.10;99.90;;;;;;5111557;28;20445;-67
2021/03/26 03:56:55;;;;;;;114.72;45.88;;;4.10;99.90;;;;;;5110055;28;20118;-67
2021/03/26 03:59:30;;;;;;;142.65;50.53;;;4.10;99.90;;;;;;5109936;28;20110;-67
2021/03/26 04:02:00;;;;;;;126.43;49.38;;;4.20;99.90;;;;;;5111056;28;20019;-67
2021/03/26 04:04:35;;;;;;;113.57;46.50;;;4.20;99.90;;;;;;5110791;28;20066;-68
2021/03/26 04:07:05;;;;;;;112.43;45.78;;;4.10;99.90;;;;;;5110980;28;20539;-66
2021/03/26 04:09:37;;;;;;;115.05;46.33;;;4.00;99.90;;;;;;5110895;28;20031;-68
2021/03/26 04:12:11;;;;;;;118.22;44.88;;;4.00;99.90;;;;;;5111183;28;20016;-68
2021/03/26 04:14:46;;;;;;;104.18;43.10;;;4.00;99.90;;;;;;5110610;28;20042;-68
2021/03/26 04:17:19;;;;;;;117.40;44.65;;;3.90;99.90;;;;;;5109383;28;20106;-68
2021/03/26 04:19:49;;;;;;;103.22;43.58;;;3.90;99.90;;;;;;5111028;28;20364;-67
2021/03/26 04:22:20;;;;;;;114.53;45.85;;;3.80;99.90;;;;;;5110725;28;20453;-67
2021/03/26 04:24:54;;;;;;;113.45;45.67;;;3.80;99.90;;;;;;5110656;28;20490;-67
2021/03/26 04:27:29;;;;;;;109.90;44.50;;;3.80;99.90;;;;;;5110592;28;20016;-68
2021/03/26 04:30:10;;;;;;;118.82;48.75;;;3.80;99.90;;;;;;5110587;28;20047;-67
2021/03/26 04:32:36;;;;;;;125.22;47.58;;;3.80;99.90;;;;;;5110262;28;20069;-67
2021/03/26 04:35:05;;;;;;;109.70;45.20;;;3.80;99.90;;;;;;5110749;28;20111;-67
2021/03/26 04:37:40;;;;;;;101.00;42.13;;;3.80;99.90;;;;;;5108862;28;20032;-67
2021/03/26 04:40:11;;;;;;;98.82;42.50;;;3.70;99.90;;;;;;5083485;28;20412;-67
2021/03/26 04:43:01;;;;;;;109.53;45.38;;;3.60;99.90;;;;;;5097031;28;20419;-67
2021/03/26 04:45:54;;;;;;;134.23;50.10;;;3.60;99.90;;;;;;5096459;28;20016;-67
2021/03/26 04:48:29;;;;;;;126.85;48.28;;;3.60;99.90;;;;;;5095043;28;20054;-68
2021/03/26 04:51:11;;;;;;;128.35;50.25;;;3.70;99.90;;;;;;5095519;28;20025;-68
2021/03/26 04:53:44;;;;;;;123.55;46.25;;;3.70;99.90;;;;;;5096569;28;20074;-67
2021/03/26 04:56:18;;;;;;;121.13;49.55;;;3.70;99.90;;;;;;5095298;28;20074;-67
2021/03/26 04:58:50;;;;;;;127.55;46.97;;;3.60;99.90;;;;;;5096688;28;20048;-68
2021/03/26 05:01:18;;;;;;;117.28;45.97;;;3.60;99.90;;;;;;5096632;28;20028;-67
2021/03/26 05:03:56;;;;;;;131.82;48.97;;;3.60;99.90;;;;;;5096646;28;20031;-67
2021/03/26 05:06:27;;;;;;;138.65;51.40;;;3.60;99.90;;;;;;5096031;28;20027;-67
2021/03/26 05:09:00;;;;;;;126.60;49.72;;;3.70;99.90;;;;;;5096481;28;20020;-67
2021/03/26 05:11:30;;;;;;;185.38;60.22;;;3.70;99.90;;;;;;5096523;28;20119;-67
2021/03/26 05:14:01;;;;;;;178.18;60.58;;;3.90;99.90;;;;;;5096438;28;20029;-67
2021/03/26 05:19:36;;;;;;;185.73;63.13;;;4.00;99.90;;;;;;5112231;27;20569;-67
2021/03/26 05:22:41;;;;;;;125.40;52.28;;;4.10;99.90;;;;;;5112028;28;20085;-67
2021/03/26 05:25:22;;;;;;;117.72;48.83;;;4.00;99.90;;;;;;5111370;27;20028;-67
2021/03/26 05:27:49;;;;;;;130.45;50.00;;;4.00;99.90;;;;;;5111619;28;20019;-67
2021/03/26 05:30:23;;;;;;;148.18;53.78;;;4.00;99.90;;;;;;5111774;28;20028;-67
2021/03/26 05:32:57;;;;;;;132.05;50.03;;;4.10;99.90;;;;;;5111731;28;20457;-67
2021/03/26 05:35:27;;;;;;;133.77;50.88;;;4.20;99.90;;;;;;5109876;28;20544;-67
2021/03/26 05:37:59;;;;;;;152.27;56.13;;;4.10;99.90;;;;;;5111302;28;20464;-67
2021/03/26 05:40:47;;;;;;;162.77;58.85;;;4.20;99.90;;;;;;5111604;28;20043;-67
2021/03/26 05:43:45;;;;;;;162.90;57.13;;;4.30;99.90;;;;;;5111515;28;20349;-67
2021/03/26 05:49:38;;;;;;;156.63;57.97;;;4.50;99.90;;;;;;5112199;27;20351;-67
2021/03/26 05:52:28;;;;;;;157.98;67.47;;;4.60;99.90;;;;;;5111583;28;20430;-67
2021/03/26 05:55:24;;;;;;;159.75;71.75;;;4.60;99.90;;;;;;5111580;28;20034;-67
2021/03/26 06:00:52;;;;;;;159.45;69.18;;;4.70;99.90;;;;;;5112256;27;20404;-67
2021/03/26 06:03:58;;;;;;;142.45;63.05;;;5.00;99.90;;;;;;5111870;28;20380;-67
2021/03/26 06:06:50;;;;;;;122.43;58.00;;;5.10;99.90;;;;;;5111253;28;20095;-67
2021/03/26 06:09:51;;;;;;;120.97;53.78;;;5.40;99.90;;;;;;5110967;28;20058;-67
2021/03/26 06:15:48;;;;;;;88.47;43.17;;;5.80;99.90;;;;;;5132897;27;662988;-67
2021/03/26 06:18:29;;;;;;;85.00;41.50;;;6.50;99.90;;;;;;5131777;28;20035;-67
2021/03/26 06:21:20;;;;;;;67.82;37.35;;;6.90;99.90;;;;;;5132407;27;20024;-67
2021/03/26 06:24:25;;;;;;;66.78;34.92;;;7.30;99.90;;;;;;5131930;27;20027;-67
2021/03/26 06:27:16;;;;;;;68.32;35.67;;;7.80;99.90;;;;;;5130311;28;20019;-67
2021/03/26 06:30:12;;;;;;;60.35;34.05;;;8.40;99.90;;;;;;5132230;27;20464;-67
2021/03/26 06:33:17;;;;;;;57.47;30.83;;;9.00;99.90;;;;;;5131715;27;20027;-67
2021/03/26 06:36:11;;;;;;;52.97;31.05;;;9.90;99.90;;;;;;5131373;28;20107;-67
2021/03/26 06:38:56;;;;;;;48.85;29.70;;;10.60;99.90;;;;;;5132070;28;20479;-67
2021/03/26 06:41:53;;;;;;;47.90;28.73;;;11.20;99.90;;;;;;5130433;28;20441;-67
2021/03/26 06:44:58;;;;;;;44.20;27.70;;;11.90;99.90;;;;;;5131463;27;20020;-68
2021/03/26 06:47:55;;;;;;;46.92;29.15;;;12.30;99.90;;;;;;5131421;28;20417;-68
2021/03/26 06:50:50;;;;;;;44.35;27.65;;;12.70;99.90;;;;;;5131731;27;20114;-68
2021/03/26 06:53:47;;;;;;;43.60;27.80;;;13.00;99.90;;;;;;5131140;27;20132;-67
2021/03/26 06:56:52;;;;;;;44.17;29.13;;;13.40;99.90;;;;;;5131572;27;20019;-68
2021/03/26 06:59:50;;;;;;;43.47;28.92;;;13.80;99.90;;;;;;5130843;28;20027;-67
2021/03/26 07:05:21;;;;;;;40.85;27.98;;;13.70;99.90;;;;;;5112247;27;20344;-66
2021/03/26 07:08:26;;;;;;;44.60;29.83;;;14.50;99.90;;;;;;5111381;28;20032;-67
2021/03/26 07:11:08;;;;;;;42.95;29.33;;;14.50;99.90;;;;;;5107326;28;20024;-66
2021/03/26 07:14:02;;;;;;;40.03;28.45;;;14.20;99.90;;;;;;5103194;28;20498;-66
2021/03/26 07:16:55;;;;;;;43.78;28.58;;;14.80;99.90;;;;;;5110888;28;20027;-68
2021/03/26 07:19:49;;;;;;;41.20;29.30;;;15.10;99.90;;;;;;5111490;28;20525;-68
2021/03/26 07:22:31;;;;;;;43.70;28.60;;;14.80;99.90;;;;;;5110894;28;20481;-68
2021/03/26 07:25:23;;;;;;;43.72;29.05;;;14.60;99.90;;;;;;5111605;28;20411;-68
2021/03/26 07:28:33;;;;;;;46.30;28.85;;;14.30;99.90;;;;;;5109283;28;20028;-68
2021/03/26 07:31:14;;;;;;;44.65;28.60;;;14.90;99.90;;;;;;5101762;28;20020;-68
2021/03/26 07:33:54;;;;;;;38.92;27.80;;;15.20;99.90;;;;;;5108583;28;20091;-68
2021/03/26 07:36:38;;;;;;;47.88;29.35;;;15.10;99.90;;;;;;5091021;28;20027;-68
2021/03/26 07:39:34;;;;;;;44.80;28.85;;;15.00;99.90;;;;;;5094910;28;20510;-68
2021/03/26 07:42:28;;;;;;;46.88;29.13;;;14.90;99.90;;;;;;5107931;28;20039;-68
2021/03/26 07:45:22;;;;;;;47.92;28.95;;;15.00;99.90;;;;;;5110309;28;20038;-68
2021/03/26 07:48:19;;;;;;;39.63;27.25;;;15.50;99.90;;;;;;5108538;28;20024;-68
2021/03/26 07:50:58;;;;;;;42.42;28.52;;;15.60;99.90;;;;;;5089283;28;20024;-68
2021/03/26 07:53:46;;;;;;;40.83;27.10;;;16.10;99.90;;;;;;5105565;28;20038;-68
2021/03/26 07:56:54;;;;;;;44.20;28.48;;;15.30;99.90;;;;;;5110104;28;20103;-68
2021/03/26 07:59:59;;;;;;;45.10;27.70;;;15.40;99.90;;;;;;5117331;28;20073;-68
2021/03/26 08:03:04;;;;;;;43.13;27.90;;;15.50;99.90;;;;;;5109686;28;20034;-68
2021/03/26 08:05:56;;;;;;;41.85;27.05;;;15.10;99.90;;;;;;5094714;28;20062;-68
2021/03/26 08:08:50;;;;;;;44.42;28.15;;;15.80;99.90;;;;;;5106871;28;20473;-68
2021/03/26 08:11:57;;;;;;;43.47;28.05;;;14.70;99.90;;;;;;5101743;28;20459;-68
2021/03/26 08:14:41;;;;;;;43.42;27.67;;;15.00;99.90;;;;;;5101451;28;20035;-68
2021/03/26 08:17:32;;;;;;;39.92;26.65;;;15.20;99.90;;;;;;5092344;28;20474;-68
2021/03/26 08:20:21;;;;;;;39.88;25.90;;;14.80;99.90;;;;;;5091218;28;20031;-68
2021/03/26 08:23:19;;;;;;;42.05;26.23;;;15.30;99.90;;;;;;5080525;28;20047;-68
2021/03/26 08:26:09;;;;;;;41.30;27.23;;;16.00;99.90;;;;;;5095043;28;20415;-68
2021/03/26 08:29:37;;;;;;;41.70;26.73;;;16.40;99.90;;;;;;5084044;28;20024;-68
2021/03/26 08:32:31;;;;;;;45.17;27.33;;;16.90;99.90;;;;;;5095356;28;20030;-68
2021/03/26 08:35:30;;;;;;;37.30;25.77;;;16.90;99.90;;;;;;5094762;28;20028;-68
2021/03/26 08:38:22;;;;;;;36.60;25.83;;;16.70;99.90;;;;;;5095175;28;20024;-68
2021/03/26 08:41:11;;;;;;;39.40;25.85;;;16.60;99.90;;;;;;5095535;28;20362;-68
2021/03/26 08:43:38;;;;;;;37.53;25.30;;;16.80;99.90;;;;;;5094016;28;20032;-68
2021/03/26 08:46:23;;;;;;;38.85;25.02;;;17.60;99.90;;;;;;5094611;28;20028;-68
2021/03/26 08:49:04;;;;;;;37.58;24.10;;;16.60;99.90;;;;;;5095010;28;20024;-68
2021/03/26 08:52:07;;;;;;;34.30;23.17;;;16.70;99.90;;;;;;5094840;28;20024;-68
2021/03/26 08:54:59;;;;;;;34.45;23.83;;;16.10;99.90;;;;;;5094527;28;20020;-68
2021/03/26 08:57:48;;;;;;;34.63;22.23;;;17.20;99.90;;;;;;5094661;28;20054;-68
2021/03/26 09:00:53;;;;;;;30.50;19.90;;;17.00;99.90;;;;;;5092048;28;20016;-68
2021/03/26 09:06:22;;;;;;;31.23;20.63;;;18.10;99.90;;;;;;5111219;27;20113;-67
2021/03/26 09:09:09;;;;;;;28.27;19.65;;;18.20;99.90;;;;;;5111056;28;20020;-67
2021/03/26 09:12:14;;;;;;;26.85;17.02;;;18.20;99.90;;;;;;5110937;28;20077;-67
2021/03/26 09:17:52;;;;;;;25.38;17.17;;;18.90;97.00;;;;;;5111075;27;20125;-67
2021/03/26 09:20:27;;;;;;;21.70;15.52;;;18.50;98.70;;;;;;5109649;28;20031;-67
2021/03/26 09:23:21;;;;;;;26.25;16.67;;;17.40;99.90;;;;;;5109011;28;20529;-68
2021/03/26 09:26:27;;;;;;;25.30;16.90;;;17.80;99.90;;;;;;5111116;28;20054;-68
2021/03/26 09:28:55;;;;;;;23.35;15.65;;;18.00;99.90;;;;;;5101591;28;20111;-68
2021/03/26 09:31:42;;;;;;;16.52;11.70;;;17.60;99.90;;;;;;5091188;28;20036;-69
2021/03/26 09:34:38;;;;;;;20.20;12.90;;;17.70;99.60;;;;;;5099552;28;20028;-66
2021/03/26 09:39:59;;;;;;;19.23;12.68;;;18.60;95.80;;;;;;5090935;28;20344;-69
2021/03/26 09:42:33;;;;;;;22.95;14.23;;;17.50;98.40;;;;;;5089171;28;20031;-69
2021/03/26 09:45:09;;;;;;;19.90;13.95;;;17.80;99.20;;;;;;5088303;28;20024;-68
2021/03/26 09:47:58;;;;;;;21.70;14.60;;;18.00;98.10;;;;;;5090433;28;20032;-70
2021/03/26 09:50:40;;;;;;;21.88;13.13;;;18.20;98.40;;;;;;5089935;28;20099;-69
2021/03/26 09:53:13;;;;;;;19.02;12.27;;;18.90;95.10;;;;;;5090392;28;20036;-68
2021/03/26 09:55:42;;;;;;;17.17;12.60;;;19.20;92.90;;;;;;5090221;28;20116;-68
2021/03/26 09:58:35;;;;;;;19.42;13.23;;;19.20;91.00;;;;;;5088758;28;20028;-67
2021/03/26 10:01:22;;;;;;;22.02;14.77;;;18.60;93.10;;;;;;5081664;28;20059;-67
2021/03/26 10:04:07;;;;;;;21.42;15.27;;;18.30;96.70;;;;;;5073553;28;20533;-68
2021/03/26 10:06:57;;;;;;;22.90;15.57;;;18.80;93.50;;;;;;5076663;28;20052;-69
2021/03/26 10:09:40;;;;;;;22.52;17.02;;;19.00;94.40;;;;;;5085393;28;20016;-69
2021/03/26 10:12:16;;;;;;;;;;;19.20;92.50;;;;;;5090865;28;20023;-69
2021/03/26 10:14:49;;;;;;;23.30;16.23;;;19.90;87.70;;;;;;5089832;28;20304;-69
2021/03/26 10:17:43;;;;;;;23.40;16.27;;;19.60;89.30;;;;;;5090151;28;20082;-68
2021/03/26 10:20:38;;;;;;;25.77;17.52;;;19.10;91.60;;;;;;5089477;28;20078;-69
2021/03/26 10:23:14;;;;;;;22.25;15.32;;;19.30;91.30;;;;;;5089689;28;20043;-69
2021/03/26 10:25:48;;;;;;;20.45;15.93;;;18.80;91.20;;;;;;5089606;28;20051;-68
2021/03/26 10:28:24;;;;;;;21.08;15.43;;;18.50;93.30;;;;;;5088590;28;20038;-68
2021/03/26 10:31:00;;;;;;;22.42;15.52;;;18.00;94.30;;;;;;5089455;28;20020;-68
2021/03/26 10:33:28;;;;;;;24.70;15.27;;;17.70;95.90;;;;;;5069508;28;20028;-69
2021/03/26 10:36:08;;;;;;;22.27;14.75;;;18.40;94.10;;;;;;5089433;28;20111;-71
2021/03/26 10:38:50;;;;;;;21.70;14.95;;;19.10;91.30;;;;;;5089017;28;20067;-69
2021/03/26 10:41:37;;;;;;;22.77;14.05;;;18.60;91.70;;;;;;5096248;28;20027;-69
2021/03/26 10:44:30;;;;;;;22.42;14.57;;;17.80;93.40;;;;;;5100147;28;20028;-69
2021/03/26 10:47:26;;;;;;;21.10;14.48;;;18.10;94.30;;;;;;5089109;28;20025;-69
2021/03/26 10:49:58;;;;;;;17.77;13.50;;;17.40;93.90;;;;;;5083884;28;20032;-69
2021/03/26 10:52:33;;;;;;;20.55;14.77;;;17.00;97.30;;;;;;5075580;28;20099;-69
2021/03/26 10:55:04;;;;;;;21.08;14.73;;;16.60;99.60;;;;;;5075753;28;20029;-68
2021/03/26 10:57:40;;;;;;;23.40;15.38;;;16.40;99.90;;;;;;5075839;28;20026;-69
2021/03/26 11:00:19;;;;;;;18.88;13.90;;;16.90;99.10;;;;;;5074109;28;20016;-69
2021/03/26 11:03:17;;;;;;;21.75;14.48;;;17.70;95.80;;;;;;5075031;28;20096;-68
2021/03/26 11:06:10;;;;;;;26.20;17.15;;;17.40;96.80;;;;;;5075394;28;20029;-69
2021/03/26 11:14:01;;;;;;;21.42;15.00;;;17.70;94.60;;;;;;5110847;27;20320;-68
2021/03/26 11:16:58;;;;;;;18.70;14.32;;;16.80;98.30;;;;;;5111234;28;20031;-69
2021/03/26 11:19:31;;;;;;;22.30;14.20;;;17.30;96.40;;;;;;5110699;28;20024;-69
2021/03/26 11:22:04;;;;;;;24.13;15.13;;;16.90;96.60;;;;;;5110880;28;20472;-69
2021/03/26 11:24:40;;;;;;;21.77;14.65;;;16.40;97.70;;;;;;5108847;28;20039;-69
2021/03/26 11:27:14;;;;;;;19.52;13.73;;;16.10;99.90;;;;;;5110198;28;20500;-69
2021/03/26 11:29:43;;;;;;;23.45;15.57;;;16.40;99.90;;;;;;5109416;28;20020;-68
2021/03/26 11:32:24;;;;;;;24.35;14.95;;;16.40;99.90;;;;;;5108939;28;20119;-68
2021/03/26 11:35:00;;;;;;;25.52;16.63;;;16.50;99.90;;;;;;5106078;28;20497;-68
2021/03/26 11:37:35;;;;;;;24.67;15.40;;;17.00;99.90;;;;;;5110046;28;20028;-68
2021/03/26 11:40:27;;;;;;;21.13;14.65;;;17.40;98.70;;;;;;5110263;28;20016;-69
2021/03/26 11:43:14;;;;;;;23.77;14.48;;;17.60;98.00;;;;;;5110188;28;20027;-69
2021/03/26 11:45:43;;;;;;;23.48;14.85;;;17.50;96.60;;;;;;5109582;28;20035;-69
2021/03/26 11:48:19;;;;;;;23.63;14.43;;;17.30;97.60;;;;;;5106132;28;20020;-68
2021/03/26 11:51:00;;;;;;;20.63;12.90;;;17.50;96.00;;;;;;5102046;28;20496;-68
2021/03/26 11:53:54;;;;;;;20.45;13.02;;;17.10;92.50;;;;;;5107990;28;20413;-69
2021/03/26 11:56:24;;;;;;;;;;;16.70;95.20;;;;;;5107655;28;20031;-69
2021/03/26 11:59:03;;;;;;;22.98;13.60;;;17.20;96.00;;;;;;5107661;28;19953;-69
2021/03/26 12:01:41;;;;;;;22.75;13.57;;;17.50;92.90;;;;;;5108574;28;20023;-69
2021/03/26 12:04:20;;;;;;;25.08;13.95;;;17.40;95.00;;;;;;5109771;28;20008;-69
2021/03/26 12:07:09;;;;;;;23.63;12.63;;;17.60;93.80;;;;;;5108430;28;20020;-68
2021/03/26 12:10:07;;;;;;;24.30;13.57;;;17.30;92.30;;;;;;5107725;28;20056;-69
2021/03/26 12:12:44;;;;;;;23.63;13.75;;;17.00;92.90;;;;;;5108207;28;20055;-68
2021/03/26 12:15:29;;;;;;;23.08;13.63;;;16.80;93.20;;;;;;5108647;28;20389;-69
2021/03/26 12:18:11;;;;;;;22.80;12.45;;;16.90;93.70;;;;;;5109718;28;20055;-68
2021/03/26 12:20:40;;;;;;;18.42;13.20;;;17.10;93.70;;;;;;5109324;28;20477;-69
2021/03/26 12:23:19;;;;;;;20.02;12.57;;;17.40;91.40;;;;;;5106933;28;20032;-69
2021/03/26 12:26:07;;;;;;;21.55;11.90;;;17.80;90.40;;;;;;5095592;28;20032;-68
2021/03/26 12:31:45;;;;;;;20.77;13.32;;;17.30;91.30;;;;;;5110620;27;20121;-68
2021/03/26 12:37:26;;;;;;;17.90;12.25;;;17.00;91.80;;;;;;5113890;27;20171;-68
2021/03/26 12:40:06;;;;;;;22.73;13.73;;;17.50;92.30;;;;;;5101588;28;20104;-69
2021/03/26 12:42:41;;;;;;;22.80;13.57;;;17.70;90.60;;;;;;5086927;28;20118;-69
2021/03/26 12:45:18;;;;;;;26.48;14.00;;;17.10;91.70;;;;;;5080302;28;20082;-69
2021/03/26 12:48:01;;;;;;;20.83;12.93;;;17.20;92.60;;;;;;5069510;28;20104;-69
2021/03/26 12:50:48;;;;;;;22.90;13.03;;;17.10;92.10;;;;;;5080293;28;20027;-68
2021/03/26 12:53:31;;;;;;;21.80;13.18;;;17.00;94.20;;;;;;5087002;28;20043;-69
2021/03/26 12:56:21;;;;;;;21.00;13.10;;;17.30;93.80;;;;;;5090243;28;20468;-68
2021/03/26 12:59:11;;;;;;;21.55;13.43;;;17.30;94.20;;;;;;5089824;28;20033;-67
2021/03/26 13:01:57;;;;;;;22.40;13.98;;;17.10;93.20;;;;;;5089938;28;20016;-67
2021/03/26 13:04:40;;;;;;;19.70;12.40;;;17.20;93.50;;;;;;5089740;28;20024;-67
2021/03/26 13:07:38;;;;;;;16.97;11.60;;;17.30;94.00;;;;;;5088823;28;20020;-68
2021/03/26 13:10:43;;;;;;;17.58;10.55;;;17.40;92.90;;;;;;5105272;28;20610;-69
2021/03/26 13:13:34;;;;;;;14.30;10.25;;;17.30;93.60;;;;;;5087752;28;20054;-69
2021/03/26 13:16:29;;;;;;;17.35;10.30;;;17.30;92.60;;;;;;5085381;28;20078;-68
2021/03/26 13:18:58;;;;;;;17.98;11.48;;;17.10;92.60;;;;;;5081319;28;20035;-69
2021/03/26 13:21:49;;;;;;;15.38;9.95;;;16.70;94.20;;;;;;5114545;28;20024;-69
2021/03/26 13:24:55;;;;;;;14.63;9.90;;;17.00;94.60;;;;;;5087140;28;20025;-68
2021/03/26 13:27:34;;;;;;;16.00;10.48;;;16.60;94.90;;;;;;5085059;28;20054;-68
2021/03/26 13:30:11;;;;;;;16.08;10.05;;;16.40;96.50;;;;;;5072253;28;20020;-68
2021/03/26 13:32:59;;;;;;;17.25;10.13;;;16.50;97.40;;;;;;5087609;28;20020;-68
2021/03/26 13:35:32;;;;;;;17.50;10.32;;;16.60;95.90;;;;;;5079923;28;20037;-68
2021/03/26 13:38:05;;;;;;;17.00;9.60;;;16.50;96.50;;;;;;5080918;28;20069;-68
2021/03/26 13:40:39;;;;;;;15.43;9.52;;;16.80;96.20;;;;;;5089313;28;20028;-68
2021/03/26 13:43:15;;;;;;;14.90;9.43;;;16.60;95.20;;;;;;5089350;28;20055;-69
2021/03/26 13:45:49;;;;;;;16.35;10.20;;;16.50;96.80;;;;;;5089644;28;20017;-69
2021/03/26 13:48:16;;;;;;;15.77;8.98;;;16.50;99.10;;;;;;5078133;28;20104;-69
2021/03/26 13:51:02;;;;;;;16.27;9.73;;;16.70;97.30;;;;;;5084985;28;20024;-69
2021/03/26 13:54:08;;;;;;;12.88;8.27;;;16.80;97.20;;;;;;5095403;28;20051;-69
2021/03/26 13:56:38;;;;;;;12.77;8.68;;;16.90;94.10;;;;;;5095612;28;20020;-69
2021/03/26 13:59:43;;;;;;;11.20;6.50;;;17.10;95.40;;;;;;5095915;28;20016;-69
2021/03/26 14:02:32;;;;;;;13.32;8.25;;;17.10;93.30;;;;;;5095838;28;20536;-69
2021/03/26 14:05:07;;;;;;;9.57;7.72;;;17.20;92.80;;;;;;5095720;28;20473;-69
2021/03/26 14:07:36;;;;;;;10.80;7.93;;;17.00;93.10;;;;;;5096274;28;20044;-69
2021/03/26 14:10:15;;;;;;;13.48;8.15;;;17.00;94.50;;;;;;5095998;28;20016;-69
2021/03/26 14:12:45;;;;;;;10.13;7.68;;;17.10;94.60;;;;;;5095785;28;20035;-69
2021/03/26 14:15:22;;;;;;;11.90;8.57;;;17.30;94.90;;;;;;5095630;28;20099;-69
2021/03/26 14:18:09;;;;;;;9.43;5.90;;;17.60;92.00;;;;;;5095359;28;20081;-69